sensor_id;sensor_type;location;lat;lon;timestamp;P1;durP1;ratioP1;P2;durP2;ratioP2
15285;SDS011;7744;52.172;10.668;2023-07-16T00:00:49;2.45;;;2.25;;
15285;SDS011;7744;52.172;10.668;2023-07-16T00:03:15;2.58;;;2.38;;
15285;SDS011;7744;52.172;10.668;2023-07-16T00:05:41;3.47;;;2.30;;
15285;SDS011;7744;52.172;10.668;2023-07-16T00:08:06;2.67;;;2.47;;
15285;SDS011;7744;52.172;10.668;2023-07-16T00:10:36;3.03;;;2.80;;
15285;SDS011;7744;52.172;10.668;2023-07-16T00:13:02;2.97;;;2.78;;
15285;SDS011;7744;52.172;10.668;2023-07-16T00:15:29;3.15;;;2.30;;
15285;SDS011;7744;52.172;10.668;2023-07-16T00:17:55;2.97;;;2.60;;
15285;SDS011;7744;52.172;10.668;2023-07-16T00:20:20;3.65;;;2.70;;
15285;SDS011;7744;52.172;10.668;2023-07-16T00:22:48;3.08;;;2.58;;
15285;SDS011;7744;52.172;10.668;2023-07-16T00:25:14;3.63;;;2.88;;
15285;SDS011;7744;52.172;10.668;2023-07-16T00:27:40;2.80;;;2.58;;
15285;SDS011;7744;52.172;10.668;2023-07-16T00:30:05;2.85;;;2.55;;
15285;SDS011;7744;52.172;10.668;2023-07-16T00:32:32;2.55;;;2.35;;
15285;SDS011;7744;52.172;10.668;2023-07-16T00:34:57;2.63;;;2.40;;
15285;SDS011;7744;52.172;10.668;2023-07-16T00:37:23;2.80;;;2.55;;
15285;SDS011;7744;52.172;10.668;2023-07-16T00:39:49;3.47;;;2.55;;
15285;SDS011;7744;52.172;10.668;2023-07-16T00:42:16;3.35;;;2.80;;
15285;SDS011;7744;52.172;10.668;2023-07-16T00:44:42;3.95;;;2.78;;
15285;SDS011;7744;52.172;10.668;2023-07-16T00:47:08;3.17;;;2.88;;
15285;SDS011;7744;52.172;10.668;2023-07-16T00:49:35;3.63;;;2.78;;
15285;SDS011;7744;52.172;10.668;2023-07-16T00:52:01;3.00;;;2.70;;
15285;SDS011;7744;52.172;10.668;2023-07-16T00:54:28;3.25;;;2.95;;
15285;SDS011;7744;52.172;10.668;2023-07-16T00:56:56;2.95;;;2.65;;
15285;SDS011;7744;52.172;10.668;2023-07-16T00:59:22;3.03;;;2.72;;
15285;SDS011;7744;52.172;10.668;2023-07-16T01:01:48;2.92;;;2.60;;
15285;SDS011;7744;52.172;10.668;2023-07-16T01:04:14;3.13;;;2.83;;
15285;SDS011;7744;52.172;10.668;2023-07-16T01:06:41;3.20;;;3.00;;
15285;SDS011;7744;52.172;10.668;2023-07-16T01:09:18;4.30;;;2.88;;
15285;SDS011;7744;52.172;10.668;2023-07-16T01:11:46;2.88;;;2.63;;
15285;SDS011;7744;52.172;10.668;2023-07-16T01:14:12;3.05;;;2.83;;
15285;SDS011;7744;52.172;10.668;2023-07-16T01:16:41;4.45;;;2.72;;
15285;SDS011;7744;52.172;10.668;2023-07-16T01:19:07;3.20;;;2.90;;
15285;SDS011;7744;52.172;10.668;2023-07-16T01:21:35;3.33;;;2.70;;
15285;SDS011;7744;52.172;10.668;2023-07-16T01:29:29;3.10;;;2.90;;
15285;SDS011;7744;52.172;10.668;2023-07-16T01:32:08;3.47;;;3.17;;
15285;SDS011;7744;52.172;10.668;2023-07-16T01:34:36;3.63;;;3.33;;
15285;SDS011;7744;52.172;10.668;2023-07-16T01:37:03;3.60;;;3.08;;
15285;SDS011;7744;52.172;10.668;2023-07-16T01:39:29;2.70;;;2.50;;
15285;SDS011;7744;52.172;10.668;2023-07-16T01:41:57;3.22;;;2.90;;
15285;SDS011;7744;52.172;10.668;2023-07-16T01:44:23;3.30;;;2.85;;
15285;SDS011;7744;52.172;10.668;2023-07-16T01:46:53;3.63;;;2.88;;
15285;SDS011;7744;52.172;10.668;2023-07-16T01:49:31;2.92;;;2.70;;
15285;SDS011;7744;52.172;10.668;2023-07-16T01:51:57;2.95;;;2.75;;
15285;SDS011;7744;52.172;10.668;2023-07-16T01:54:23;3.30;;;3.00;;
15285;SDS011;7744;52.172;10.668;2023-07-16T01:56:49;3.40;;;3.10;;
15285;SDS011;7744;52.172;10.668;2023-07-16T01:59:15;3.42;;;3.13;;
15285;SDS011;7744;52.172;10.668;2023-07-16T02:01:41;3.30;;;2.92;;
15285;SDS011;7744;52.172;10.668;2023-07-16T02:04:07;2.80;;;2.60;;
15285;SDS011;7744;52.172;10.668;2023-07-16T02:06:33;2.90;;;2.65;;
15285;SDS011;7744;52.172;10.668;2023-07-16T02:08:59;3.70;;;2.92;;
15285;SDS011;7744;52.172;10.668;2023-07-16T02:11:25;2.92;;;2.67;;
15285;SDS011;7744;52.172;10.668;2023-07-16T02:13:51;3.40;;;3.10;;
15285;SDS011;7744;52.172;10.668;2023-07-16T02:16:17;4.10;;;3.25;;
15285;SDS011;7744;52.172;10.668;2023-07-16T02:18:43;2.78;;;2.53;;
15285;SDS011;7744;52.172;10.668;2023-07-16T02:21:09;3.20;;;2.90;;
15285;SDS011;7744;52.172;10.668;2023-07-16T02:23:35;2.83;;;2.50;;
15285;SDS011;7744;52.172;10.668;2023-07-16T02:26:01;2.67;;;2.47;;
15285;SDS011;7744;52.172;10.668;2023-07-16T02:28:27;2.70;;;2.50;;
15285;SDS011;7744;52.172;10.668;2023-07-16T02:30:53;2.65;;;2.40;;
15285;SDS011;7744;52.172;10.668;2023-07-16T02:33:19;3.45;;;2.50;;
15285;SDS011;7744;52.172;10.668;2023-07-16T02:35:48;2.90;;;2.50;;
15285;SDS011;7744;52.172;10.668;2023-07-16T02:38:15;2.65;;;2.45;;
15285;SDS011;7744;52.172;10.668;2023-07-16T02:40:44;2.97;;;2.10;;
15285;SDS011;7744;52.172;10.668;2023-07-16T02:43:11;3.50;;;2.67;;
15285;SDS011;7744;52.172;10.668;2023-07-16T02:45:37;2.42;;;2.13;;
15285;SDS011;7744;52.172;10.668;2023-07-16T02:48:03;2.80;;;2.40;;
15285;SDS011;7744;52.172;10.668;2023-07-16T02:50:30;4.90;;;2.63;;
15285;SDS011;7744;52.172;10.668;2023-07-16T02:52:58;2.58;;;2.38;;
15285;SDS011;7744;52.172;10.668;2023-07-16T02:55:24;2.88;;;2.20;;
15285;SDS011;7744;52.172;10.668;2023-07-16T02:57:49;2.92;;;2.20;;
15285;SDS011;7744;52.172;10.668;2023-07-16T03:00:15;3.05;;;2.75;;
15285;SDS011;7744;52.172;10.668;2023-07-16T03:02:41;2.58;;;2.15;;
15285;SDS011;7744;52.172;10.668;2023-07-16T03:05:06;2.83;;;2.30;;
15285;SDS011;7744;52.172;10.668;2023-07-16T03:07:32;2.72;;;2.53;;
15285;SDS011;7744;52.172;10.668;2023-07-16T03:09:58;2.67;;;2.47;;
15285;SDS011;7744;52.172;10.668;2023-07-16T03:12:23;3.22;;;2.10;;
15285;SDS011;7744;52.172;10.668;2023-07-16T03:14:49;3.08;;;2.22;;
15285;SDS011;7744;52.172;10.668;2023-07-16T03:17:15;2.58;;;2.17;;
15285;SDS011;7744;52.172;10.668;2023-07-16T03:19:41;3.28;;;2.00;;
15285;SDS011;7744;52.172;10.668;2023-07-16T03:22:07;3.92;;;2.38;;
15285;SDS011;7744;52.172;10.668;2023-07-16T03:24:33;2.17;;;1.90;;
15285;SDS011;7744;52.172;10.668;2023-07-16T03:26:59;3.03;;;2.03;;
15285;SDS011;7744;52.172;10.668;2023-07-16T03:29:25;2.25;;;1.85;;
15285;SDS011;7744;52.172;10.668;2023-07-16T03:31:50;3.58;;;2.05;;
15285;SDS011;7744;52.172;10.668;2023-07-16T03:34:16;3.53;;;1.80;;
15285;SDS011;7744;52.172;10.668;2023-07-16T03:36:41;3.53;;;2.03;;
15285;SDS011;7744;52.172;10.668;2023-07-16T03:39:07;3.65;;;2.28;;
15285;SDS011;7744;52.172;10.668;2023-07-16T03:41:32;3.33;;;2.03;;
15285;SDS011;7744;52.172;10.668;2023-07-16T03:43:58;3.28;;;2.42;;
15285;SDS011;7744;52.172;10.668;2023-07-16T03:46:23;2.90;;;2.15;;
15285;SDS011;7744;52.172;10.668;2023-07-16T03:48:49;4.13;;;2.20;;
15285;SDS011;7744;52.172;10.668;2023-07-16T03:51:16;2.38;;;2.17;;
15285;SDS011;7744;52.172;10.668;2023-07-16T03:53:42;2.63;;;2.10;;
15285;SDS011;7744;52.172;10.668;2023-07-16T03:56:07;3.22;;;2.13;;
15285;SDS011;7744;52.172;10.668;2023-07-16T03:58:33;3.15;;;2.10;;
15285;SDS011;7744;52.172;10.668;2023-07-16T04:00:59;2.78;;;2.38;;
15285;SDS011;7744;52.172;10.668;2023-07-16T04:03:24;3.05;;;1.95;;
15285;SDS011;7744;52.172;10.668;2023-07-16T04:05:50;3.42;;;2.20;;
15285;SDS011;7744;52.172;10.668;2023-07-16T04:08:15;2.15;;;1.90;;
15285;SDS011;7744;52.172;10.668;2023-07-16T04:10:41;2.05;;;1.85;;
15285;SDS011;7744;52.172;10.668;2023-07-16T04:13:07;3.35;;;2.10;;
15285;SDS011;7744;52.172;10.668;2023-07-16T04:15:32;2.55;;;1.90;;
15285;SDS011;7744;52.172;10.668;2023-07-16T04:17:58;2.25;;;2.05;;
15285;SDS011;7744;52.172;10.668;2023-07-16T04:20:23;3.60;;;2.40;;
15285;SDS011;7744;52.172;10.668;2023-07-16T04:22:49;2.20;;;1.80;;
15285;SDS011;7744;52.172;10.668;2023-07-16T04:25:15;3.90;;;2.17;;
15285;SDS011;7744;52.172;10.668;2023-07-16T04:27:41;4.65;;;2.35;;
15285;SDS011;7744;52.172;10.668;2023-07-16T04:30:08;3.58;;;2.20;;
15285;SDS011;7744;52.172;10.668;2023-07-16T04:32:34;4.32;;;2.13;;
15285;SDS011;7744;52.172;10.668;2023-07-16T04:35:00;2.65;;;1.83;;
15285;SDS011;7744;52.172;10.668;2023-07-16T04:37:26;2.65;;;2.03;;
15285;SDS011;7744;52.172;10.668;2023-07-16T04:39:51;4.15;;;2.40;;
15285;SDS011;7744;52.172;10.668;2023-07-16T04:42:17;3.17;;;2.40;;
15285;SDS011;7744;52.172;10.668;2023-07-16T04:44:42;3.47;;;2.35;;
15285;SDS011;7744;52.172;10.668;2023-07-16T04:47:08;4.47;;;2.25;;
15285;SDS011;7744;52.172;10.668;2023-07-16T04:49:34;2.42;;;2.22;;
15285;SDS011;7744;52.172;10.668;2023-07-16T04:52:01;2.92;;;2.20;;
15285;SDS011;7744;52.172;10.668;2023-07-16T04:54:27;3.17;;;2.13;;
15285;SDS011;7744;52.172;10.668;2023-07-16T04:56:53;3.35;;;2.10;;
15285;SDS011;7744;52.172;10.668;2023-07-16T04:59:18;3.58;;;2.03;;
15285;SDS011;7744;52.172;10.668;2023-07-16T05:01:44;2.38;;;1.85;;
15285;SDS011;7744;52.172;10.668;2023-07-16T05:04:10;3.25;;;2.08;;
15285;SDS011;7744;52.172;10.668;2023-07-16T05:06:35;3.03;;;2.22;;
15285;SDS011;7744;52.172;10.668;2023-07-16T05:09:01;3.63;;;2.28;;
15285;SDS011;7744;52.172;10.668;2023-07-16T05:11:27;2.88;;;2.30;;
15285;SDS011;7744;52.172;10.668;2023-07-16T05:13:52;3.72;;;2.40;;
15285;SDS011;7744;52.172;10.668;2023-07-16T05:16:18;2.90;;;2.20;;
15285;SDS011;7744;52.172;10.668;2023-07-16T05:18:43;3.30;;;2.45;;
15285;SDS011;7744;52.172;10.668;2023-07-16T05:21:09;3.08;;;2.17;;
15285;SDS011;7744;52.172;10.668;2023-07-16T05:23:34;2.88;;;2.08;;
15285;SDS011;7744;52.172;10.668;2023-07-16T05:26:00;3.83;;;2.10;;
15285;SDS011;7744;52.172;10.668;2023-07-16T05:28:25;2.50;;;1.77;;
15285;SDS011;7744;52.172;10.668;2023-07-16T05:30:58;2.20;;;2.00;;
15285;SDS011;7744;52.172;10.668;2023-07-16T05:33:24;1.80;;;1.63;;
15285;SDS011;7744;52.172;10.668;2023-07-16T05:35:50;3.85;;;1.83;;
15285;SDS011;7744;52.172;10.668;2023-07-16T05:38:16;2.50;;;1.55;;
15285;SDS011;7744;52.172;10.668;2023-07-16T05:40:41;2.75;;;1.50;;
15285;SDS011;7744;52.172;10.668;2023-07-16T05:43:07;2.15;;;1.42;;
15285;SDS011;7744;52.172;10.668;2023-07-16T05:45:32;2.47;;;1.77;;
15285;SDS011;7744;52.172;10.668;2023-07-16T05:47:58;2.67;;;1.40;;
15285;SDS011;7744;52.172;10.668;2023-07-16T05:50:24;1.92;;;1.45;;
15285;SDS011;7744;52.172;10.668;2023-07-16T05:52:49;3.03;;;1.60;;
15285;SDS011;7744;52.172;10.668;2023-07-16T05:55:15;2.33;;;1.83;;
15285;SDS011;7744;52.172;10.668;2023-07-16T05:57:42;3.42;;;1.70;;
15285;SDS011;7744;52.172;10.668;2023-07-16T06:00:07;2.08;;;1.30;;
15285;SDS011;7744;52.172;10.668;2023-07-16T06:02:34;1.67;;;1.33;;
15285;SDS011;7744;52.172;10.668;2023-07-16T06:04:59;2.35;;;1.60;;
15285;SDS011;7744;52.172;10.668;2023-07-16T06:07:25;2.28;;;1.45;;
15285;SDS011;7744;52.172;10.668;2023-07-16T06:09:51;1.60;;;1.45;;
15285;SDS011;7744;52.172;10.668;2023-07-16T06:12:16;2.55;;;1.50;;
15285;SDS011;7744;52.172;10.668;2023-07-16T06:14:42;2.38;;;1.60;;
15285;SDS011;7744;52.172;10.668;2023-07-16T06:17:07;2.45;;;1.60;;
15285;SDS011;7744;52.172;10.668;2023-07-16T06:19:33;1.98;;;1.40;;
15285;SDS011;7744;52.172;10.668;2023-07-16T06:21:59;2.33;;;1.40;;
15285;SDS011;7744;52.172;10.668;2023-07-16T06:24:25;3.10;;;1.65;;
15285;SDS011;7744;52.172;10.668;2023-07-16T06:26:50;2.88;;;1.73;;
15285;SDS011;7744;52.172;10.668;2023-07-16T06:29:16;2.05;;;1.45;;
15285;SDS011;7744;52.172;10.668;2023-07-16T06:31:42;2.35;;;1.50;;
15285;SDS011;7744;52.172;10.668;2023-07-16T06:34:09;2.80;;;1.60;;
15285;SDS011;7744;52.172;10.668;2023-07-16T06:36:35;2.67;;;1.73;;
15285;SDS011;7744;52.172;10.668;2023-07-16T06:39:00;2.70;;;1.83;;
15285;SDS011;7744;52.172;10.668;2023-07-16T06:41:26;3.13;;;1.83;;
15285;SDS011;7744;52.172;10.668;2023-07-16T06:43:51;1.60;;;1.27;;
15285;SDS011;7744;52.172;10.668;2023-07-16T06:46:17;1.33;;;1.20;;
15285;SDS011;7744;52.172;10.668;2023-07-16T06:48:43;2.10;;;1.52;;
15285;SDS011;7744;52.172;10.668;2023-07-16T06:51:08;2.78;;;1.60;;
15285;SDS011;7744;52.172;10.668;2023-07-16T06:53:34;1.75;;;1.55;;
15285;SDS011;7744;52.172;10.668;2023-07-16T06:56:00;2.05;;;1.50;;
15285;SDS011;7744;52.172;10.668;2023-07-16T06:58:33;4.32;;;1.70;;
15285;SDS011;7744;52.172;10.668;2023-07-16T07:00:59;2.47;;;1.70;;
15285;SDS011;7744;52.172;10.668;2023-07-16T07:03:24;2.60;;;1.70;;
15285;SDS011;7744;52.172;10.668;2023-07-16T07:05:50;2.63;;;1.75;;
15285;SDS011;7744;52.172;10.668;2023-07-16T07:08:15;4.65;;;1.75;;
15285;SDS011;7744;52.172;10.668;2023-07-16T07:10:41;2.83;;;1.63;;
15285;SDS011;7744;52.172;10.668;2023-07-16T07:13:07;3.65;;;1.67;;
15285;SDS011;7744;52.172;10.668;2023-07-16T07:15:32;3.60;;;1.60;;
15285;SDS011;7744;52.172;10.668;2023-07-16T07:17:58;2.85;;;1.65;;
15285;SDS011;7744;52.172;10.668;2023-07-16T07:20:23;2.55;;;1.33;;
15285;SDS011;7744;52.172;10.668;2023-07-16T07:22:49;2.55;;;1.25;;
15285;SDS011;7744;52.172;10.668;2023-07-16T07:25:14;2.58;;;1.33;;
15285;SDS011;7744;52.172;10.668;2023-07-16T07:27:40;2.08;;;1.50;;
15285;SDS011;7744;52.172;10.668;2023-07-16T07:30:06;3.20;;;1.77;;
15285;SDS011;7744;52.172;10.668;2023-07-16T07:32:32;2.47;;;1.40;;
15285;SDS011;7744;52.172;10.668;2023-07-16T07:35:01;2.47;;;1.48;;
15285;SDS011;7744;52.172;10.668;2023-07-16T07:37:27;3.03;;;1.45;;
15285;SDS011;7744;52.172;10.668;2023-07-16T07:39:52;3.67;;;1.45;;
15285;SDS011;7744;52.172;10.668;2023-07-16T07:42:18;2.33;;;1.20;;
15285;SDS011;7744;52.172;10.668;2023-07-16T07:44:44;2.67;;;1.23;;
15285;SDS011;7744;52.172;10.668;2023-07-16T07:47:10;1.75;;;1.05;;
15285;SDS011;7744;52.172;10.668;2023-07-16T07:49:35;1.55;;;1.13;;
15285;SDS011;7744;52.172;10.668;2023-07-16T07:52:01;2.05;;;1.27;;
15285;SDS011;7744;52.172;10.668;2023-07-16T07:54:26;3.25;;;1.40;;
15285;SDS011;7744;52.172;10.668;2023-07-16T07:56:52;3.40;;;1.70;;
15285;SDS011;7744;52.172;10.668;2023-07-16T07:59:17;5.38;;;1.33;;
15285;SDS011;7744;52.172;10.668;2023-07-16T08:01:43;3.45;;;1.52;;
15285;SDS011;7744;52.172;10.668;2023-07-16T08:04:08;3.13;;;1.70;;
15285;SDS011;7744;52.172;10.668;2023-07-16T08:06:34;3.15;;;1.38;;
15285;SDS011;7744;52.172;10.668;2023-07-16T08:09:00;3.40;;;1.40;;
15285;SDS011;7744;52.172;10.668;2023-07-16T08:11:25;2.45;;;1.30;;
15285;SDS011;7744;52.172;10.668;2023-07-16T08:13:51;5.22;;;1.40;;
15285;SDS011;7744;52.172;10.668;2023-07-16T08:16:16;3.70;;;1.30;;
15285;SDS011;7744;52.172;10.668;2023-07-16T08:18:42;3.33;;;1.40;;
15285;SDS011;7744;52.172;10.668;2023-07-16T08:21:08;3.00;;;1.30;;
15285;SDS011;7744;52.172;10.668;2023-07-16T08:23:33;2.58;;;1.40;;
15285;SDS011;7744;52.172;10.668;2023-07-16T08:25:59;3.75;;;1.40;;
15285;SDS011;7744;52.172;10.668;2023-07-16T08:28:24;3.38;;;1.10;;
15285;SDS011;7744;52.172;10.668;2023-07-16T08:30:50;2.60;;;1.35;;
15285;SDS011;7744;52.172;10.668;2023-07-16T08:33:15;4.68;;;1.40;;
15285;SDS011;7744;52.172;10.668;2023-07-16T08:35:41;3.25;;;1.40;;
15285;SDS011;7744;52.172;10.668;2023-07-16T08:38:07;3.88;;;1.50;;
15285;SDS011;7744;52.172;10.668;2023-07-16T08:40:35;3.90;;;1.58;;
15285;SDS011;7744;52.172;10.668;2023-07-16T08:43:02;4.28;;;1.40;;
15285;SDS011;7744;52.172;10.668;2023-07-16T08:45:31;4.03;;;1.45;;
15285;SDS011;7744;52.172;10.668;2023-07-16T08:47:59;3.42;;;1.17;;
15285;SDS011;7744;52.172;10.668;2023-07-16T08:50:25;3.88;;;1.52;;
15285;SDS011;7744;52.172;10.668;2023-07-16T08:52:52;5.15;;;1.60;;
15285;SDS011;7744;52.172;10.668;2023-07-16T08:55:19;2.10;;;1.40;;
15285;SDS011;7744;52.172;10.668;2023-07-16T08:57:44;3.80;;;1.63;;
15285;SDS011;7744;52.172;10.668;2023-07-16T09:00:10;3.20;;;1.40;;
15285;SDS011;7744;52.172;10.668;2023-07-16T09:02:37;2.50;;;1.50;;
15285;SDS011;7744;52.172;10.668;2023-07-16T09:05:04;3.60;;;1.63;;
15285;SDS011;7744;52.172;10.668;2023-07-16T09:07:30;2.38;;;1.50;;
15285;SDS011;7744;52.172;10.668;2023-07-16T09:09:56;2.92;;;1.33;;
15285;SDS011;7744;52.172;10.668;2023-07-16T09:12:23;3.53;;;1.30;;
15285;SDS011;7744;52.172;10.668;2023-07-16T09:14:49;4.18;;;1.30;;
15285;SDS011;7744;52.172;10.668;2023-07-16T09:17:19;2.13;;;1.33;;
15285;SDS011;7744;52.172;10.668;2023-07-16T09:19:49;2.50;;;1.40;;
15285;SDS011;7744;52.172;10.668;2023-07-16T09:22:19;4.95;;;2.03;;
15285;SDS011;7744;52.172;10.668;2023-07-16T09:24:45;2.33;;;1.30;;
15285;SDS011;7744;52.172;10.668;2023-07-16T09:27:12;2.45;;;1.30;;
15285;SDS011;7744;52.172;10.668;2023-07-16T09:29:39;2.95;;;1.60;;
15285;SDS011;7744;52.172;10.668;2023-07-16T09:32:05;2.33;;;1.40;;
15285;SDS011;7744;52.172;10.668;2023-07-16T09:34:31;2.90;;;1.38;;
15285;SDS011;7744;52.172;10.668;2023-07-16T09:36:57;2.95;;;1.33;;
15285;SDS011;7744;52.172;10.668;2023-07-16T09:39:23;3.50;;;1.60;;
15285;SDS011;7744;52.172;10.668;2023-07-16T09:41:51;3.28;;;1.40;;
15285;SDS011;7744;52.172;10.668;2023-07-16T09:44:17;3.58;;;1.58;;
15285;SDS011;7744;52.172;10.668;2023-07-16T09:46:44;3.13;;;1.50;;
15285;SDS011;7744;52.172;10.668;2023-07-16T09:49:10;1.95;;;1.27;;
15285;SDS011;7744;52.172;10.668;2023-07-16T09:51:37;2.47;;;1.42;;
15285;SDS011;7744;52.172;10.668;2023-07-16T09:54:04;2.67;;;1.23;;
15285;SDS011;7744;52.172;10.668;2023-07-16T09:58:59;3.45;;;1.63;;
15285;SDS011;7744;52.172;10.668;2023-07-16T10:01:28;2.50;;;1.40;;
15285;SDS011;7744;52.172;10.668;2023-07-16T10:03:54;3.97;;;1.65;;
15285;SDS011;7744;52.172;10.668;2023-07-16T10:06:20;3.08;;;1.70;;
15285;SDS011;7744;52.172;10.668;2023-07-16T10:08:49;3.03;;;1.52;;
15285;SDS011;7744;52.172;10.668;2023-07-16T10:11:15;3.45;;;1.90;;
15285;SDS011;7744;52.172;10.668;2023-07-16T10:13:42;3.40;;;1.85;;
15285;SDS011;7744;52.172;10.668;2023-07-16T10:16:10;3.53;;;1.58;;
15285;SDS011;7744;52.172;10.668;2023-07-16T10:18:50;2.10;;;1.65;;
15285;SDS011;7744;52.172;10.668;2023-07-16T10:21:22;2.47;;;1.40;;
15285;SDS011;7744;52.172;10.668;2023-07-16T10:23:56;3.47;;;1.60;;
15285;SDS011;7744;52.172;10.668;2023-07-16T10:26:26;3.83;;;1.60;;
15285;SDS011;7744;52.172;10.668;2023-07-16T10:28:53;2.72;;;1.50;;
15285;SDS011;7744;52.172;10.668;2023-07-16T10:31:20;2.45;;;1.73;;
15285;SDS011;7744;52.172;10.668;2023-07-16T10:34:03;3.22;;;1.77;;
15285;SDS011;7744;52.172;10.668;2023-07-16T10:36:29;2.15;;;1.60;;
15285;SDS011;7744;52.172;10.668;2023-07-16T10:39:02;2.38;;;1.77;;
15285;SDS011;7744;52.172;10.668;2023-07-16T10:41:29;2.17;;;1.80;;
15285;SDS011;7744;52.172;10.668;2023-07-16T10:43:56;1.85;;;1.42;;
15285;SDS011;7744;52.172;10.668;2023-07-16T10:46:23;2.22;;;1.60;;
15285;SDS011;7744;52.172;10.668;2023-07-16T10:48:49;2.80;;;1.65;;
15285;SDS011;7744;52.172;10.668;2023-07-16T10:51:15;4.32;;;1.90;;
15285;SDS011;7744;52.172;10.668;2023-07-16T10:53:43;2.28;;;1.65;;
15285;SDS011;7744;52.172;10.668;2023-07-16T10:56:09;4.35;;;1.50;;
15285;SDS011;7744;52.172;10.668;2023-07-16T10:58:36;4.03;;;1.70;;
15285;SDS011;7744;52.172;10.668;2023-07-16T11:01:02;3.38;;;1.58;;
15285;SDS011;7744;52.172;10.668;2023-07-16T11:03:28;3.13;;;1.73;;
15285;SDS011;7744;52.172;10.668;2023-07-16T11:05:53;2.75;;;1.67;;
15285;SDS011;7744;52.172;10.668;2023-07-16T11:08:22;2.20;;;1.42;;
15285;SDS011;7744;52.172;10.668;2023-07-16T11:10:58;4.35;;;1.63;;
15285;SDS011;7744;52.172;10.668;2023-07-16T11:13:43;5.32;;;1.63;;
15285;SDS011;7744;52.172;10.668;2023-07-16T11:16:09;4.53;;;1.70;;
15285;SDS011;7744;52.172;10.668;2023-07-16T11:18:35;2.15;;;1.45;;
15285;SDS011;7744;52.172;10.668;2023-07-16T11:21:01;2.72;;;1.40;;
15285;SDS011;7744;52.172;10.668;2023-07-16T11:23:27;3.60;;;1.50;;
15285;SDS011;7744;52.172;10.668;2023-07-16T11:25:53;1.75;;;1.40;;
15285;SDS011;7744;52.172;10.668;2023-07-16T11:28:19;3.10;;;1.58;;
15285;SDS011;7744;52.172;10.668;2023-07-16T11:30:44;2.90;;;1.50;;
15285;SDS011;7744;52.172;10.668;2023-07-16T11:33:10;2.83;;;1.60;;
15285;SDS011;7744;52.172;10.668;2023-07-16T11:35:37;4.03;;;1.40;;
15285;SDS011;7744;52.172;10.668;2023-07-16T11:38:06;3.17;;;1.63;;
15285;SDS011;7744;52.172;10.668;2023-07-16T11:40:35;2.65;;;1.48;;
15285;SDS011;7744;52.172;10.668;2023-07-16T11:43:11;2.88;;;1.90;;
15285;SDS011;7744;52.172;10.668;2023-07-16T11:45:37;2.20;;;1.25;;
15285;SDS011;7744;52.172;10.668;2023-07-16T11:48:03;2.33;;;1.52;;
15285;SDS011;7744;52.172;10.668;2023-07-16T11:50:30;2.00;;;1.58;;
15285;SDS011;7744;52.172;10.668;2023-07-16T11:52:58;2.22;;;1.63;;
15285;SDS011;7744;52.172;10.668;2023-07-16T11:55:25;3.03;;;1.95;;
15285;SDS011;7744;52.172;10.668;2023-07-16T11:57:52;1.90;;;1.60;;
15285;SDS011;7744;52.172;10.668;2023-07-16T12:00:18;2.65;;;1.67;;
15285;SDS011;7744;52.172;10.668;2023-07-16T12:02:44;2.90;;;1.95;;
15285;SDS011;7744;52.172;10.668;2023-07-16T12:05:16;3.50;;;1.70;;
15285;SDS011;7744;52.172;10.668;2023-07-16T12:07:42;2.95;;;1.73;;
15285;SDS011;7744;52.172;10.668;2023-07-16T12:10:08;3.72;;;1.83;;
15285;SDS011;7744;52.172;10.668;2023-07-16T12:12:33;4.22;;;1.67;;
15285;SDS011;7744;52.172;10.668;2023-07-16T12:15:03;2.58;;;1.77;;
15285;SDS011;7744;52.172;10.668;2023-07-16T12:17:29;3.13;;;1.95;;
15285;SDS011;7744;52.172;10.668;2023-07-16T12:19:55;2.25;;;1.95;;
15285;SDS011;7744;52.172;10.668;2023-07-16T12:22:21;2.95;;;2.15;;
15285;SDS011;7744;52.172;10.668;2023-07-16T12:24:48;3.78;;;2.10;;
15285;SDS011;7744;52.172;10.668;2023-07-16T12:27:14;2.88;;;1.85;;
15285;SDS011;7744;52.172;10.668;2023-07-16T12:29:41;3.35;;;2.15;;
15285;SDS011;7744;52.172;10.668;2023-07-16T12:32:07;2.72;;;1.95;;
15285;SDS011;7744;52.172;10.668;2023-07-16T12:34:33;2.80;;;1.88;;
15285;SDS011;7744;52.172;10.668;2023-07-16T12:36:59;3.70;;;2.15;;
15285;SDS011;7744;52.172;10.668;2023-07-16T12:39:25;3.53;;;2.30;;
15285;SDS011;7744;52.172;10.668;2023-07-16T12:41:50;2.17;;;1.98;;
15285;SDS011;7744;52.172;10.668;2023-07-16T12:44:16;3.55;;;2.10;;
15285;SDS011;7744;52.172;10.668;2023-07-16T12:46:42;2.30;;;2.10;;
15285;SDS011;7744;52.172;10.668;2023-07-16T12:49:08;2.88;;;2.03;;
15285;SDS011;7744;52.172;10.668;2023-07-16T12:51:34;2.80;;;2.05;;
15285;SDS011;7744;52.172;10.668;2023-07-16T12:54:00;2.47;;;1.90;;
15285;SDS011;7744;52.172;10.668;2023-07-16T12:56:26;2.00;;;1.90;;
15285;SDS011;7744;52.172;10.668;2023-07-16T12:58:52;2.10;;;1.85;;
15285;SDS011;7744;52.172;10.668;2023-07-16T13:01:18;2.72;;;2.20;;
15285;SDS011;7744;52.172;10.668;2023-07-16T13:03:44;2.58;;;2.00;;
15285;SDS011;7744;52.172;10.668;2023-07-16T13:06:10;4.25;;;1.85;;
15285;SDS011;7744;52.172;10.668;2023-07-16T13:08:35;2.90;;;2.22;;
15285;SDS011;7744;52.172;10.668;2023-07-16T13:11:01;2.13;;;1.83;;
15285;SDS011;7744;52.172;10.668;2023-07-16T13:13:27;3.88;;;2.00;;
15285;SDS011;7744;52.172;10.668;2023-07-16T13:15:54;2.63;;;1.98;;
15285;SDS011;7744;52.172;10.668;2023-07-16T13:18:20;2.33;;;2.13;;
15285;SDS011;7744;52.172;10.668;2023-07-16T13:20:45;4.97;;;2.17;;
15285;SDS011;7744;52.172;10.668;2023-07-16T13:23:12;2.47;;;2.00;;
15285;SDS011;7744;52.172;10.668;2023-07-16T13:25:37;2.88;;;2.10;;
15285;SDS011;7744;52.172;10.668;2023-07-16T13:28:04;2.58;;;2.00;;
15285;SDS011;7744;52.172;10.668;2023-07-16T13:30:30;3.25;;;2.30;;
15285;SDS011;7744;52.172;10.668;2023-07-16T13:32:56;3.28;;;2.22;;
15285;SDS011;7744;52.172;10.668;2023-07-16T13:35:22;2.55;;;2.10;;
15285;SDS011;7744;52.172;10.668;2023-07-16T13:37:48;2.65;;;2.17;;
15285;SDS011;7744;52.172;10.668;2023-07-16T13:40:14;3.83;;;2.10;;
15285;SDS011;7744;52.172;10.668;2023-07-16T13:42:39;2.53;;;2.30;;
15285;SDS011;7744;52.172;10.668;2023-07-16T13:45:05;2.40;;;2.20;;
15285;SDS011;7744;52.172;10.668;2023-07-16T13:47:32;4.65;;;1.85;;
15285;SDS011;7744;52.172;10.668;2023-07-16T13:49:57;3.25;;;2.10;;
15285;SDS011;7744;52.172;10.668;2023-07-16T13:52:23;2.63;;;2.25;;
15285;SDS011;7744;52.172;10.668;2023-07-16T13:54:48;3.60;;;2.20;;
15285;SDS011;7744;52.172;10.668;2023-07-16T13:57:14;2.78;;;2.30;;
15285;SDS011;7744;52.172;10.668;2023-07-16T13:59:40;2.70;;;1.90;;
15285;SDS011;7744;52.172;10.668;2023-07-16T14:02:06;2.38;;;2.17;;
15285;SDS011;7744;52.172;10.668;2023-07-16T14:04:32;2.97;;;2.20;;
15285;SDS011;7744;52.172;10.668;2023-07-16T14:06:58;3.47;;;2.30;;
15285;SDS011;7744;52.172;10.668;2023-07-16T14:09:24;4.32;;;2.40;;
15285;SDS011;7744;52.172;10.668;2023-07-16T14:11:50;2.72;;;2.15;;
15285;SDS011;7744;52.172;10.668;2023-07-16T14:14:16;3.28;;;2.30;;
15285;SDS011;7744;52.172;10.668;2023-07-16T14:16:42;4.55;;;2.58;;
15285;SDS011;7744;52.172;10.668;2023-07-16T14:19:08;3.13;;;2.00;;
15285;SDS011;7744;52.172;10.668;2023-07-16T14:21:37;7.75;;;2.92;;
15285;SDS011;7744;52.172;10.668;2023-07-16T14:24:03;2.40;;;2.20;;
15285;SDS011;7744;52.172;10.668;2023-07-16T14:26:29;3.83;;;2.20;;
15285;SDS011;7744;52.172;10.668;2023-07-16T14:28:54;3.40;;;2.25;;
15285;SDS011;7744;52.172;10.668;2023-07-16T14:31:20;2.92;;;2.30;;
15285;SDS011;7744;52.172;10.668;2023-07-16T14:33:46;2.25;;;1.90;;
15285;SDS011;7744;52.172;10.668;2023-07-16T14:36:11;3.35;;;2.40;;
15285;SDS011;7744;52.172;10.668;2023-07-16T14:38:37;2.40;;;2.15;;
15285;SDS011;7744;52.172;10.668;2023-07-16T14:41:02;2.33;;;2.10;;
15285;SDS011;7744;52.172;10.668;2023-07-16T14:43:29;3.42;;;2.28;;
15285;SDS011;7744;52.172;10.668;2023-07-16T14:45:55;2.63;;;2.40;;
15285;SDS011;7744;52.172;10.668;2023-07-16T14:48:20;3.70;;;2.42;;
15285;SDS011;7744;52.172;10.668;2023-07-16T14:50:50;2.30;;;2.10;;